Time;durP1;ratioP1;P1;durP2;ratioP2;P2;SDS_P1;SDS_P2;PMS_P1;PMS_P2;Temp;Humidity;BMP_temperature;BMP_pressure;BME280_temperature;BME280_humidity;BME280_pressure;Samples;Min_cycle;Max_cycle;Signal;HPM_P1;HPM_P2
2021/11/06 00:01:09;;;;;;;4.50;0.90;;;10.40;99.90;;;;;;6268263;23;20156;-87
2021/11/06 00:03:40;;;;;;;6.03;0.97;;;10.40;99.90;;;;;;6233115;23;20203;-89
2021/11/06 00:06:12;;;;;;;3.73;1.20;;;10.40;99.90;;;;;;6257087;23;20226;-89
2021/11/06 00:08:43;;;;;;;3.87;0.87;;;10.30;99.90;;;;;;6251101;23;20282;-88
2021/11/06 00:11:15;;;;;;;4.67;1.00;;;10.30;99.90;;;;;;6250298;23;20176;-88
2021/11/06 00:13:51;;;;;;;2.27;0.80;;;10.20;99.90;;;;;;6255300;23;20213;-94
2021/11/06 00:16:26;;;;;;;3.97;1.03;;;10.00;99.90;;;;;;6253064;23;20206;-87
2021/11/06 00:18:58;;;;;;;2.53;0.80;;;9.90;99.90;;;;;;6253946;23;20171;-88
2021/11/06 00:21:29;;;;;;;3.17;0.97;;;9.80;99.90;;;;;;6259442;23;20199;-87
2021/11/06 00:24:01;;;;;;;1.63;0.80;;;9.70;99.90;;;;;;6252302;23;20203;-88
2021/11/06 00:26:35;;;;;;;3.17;0.83;;;9.60;99.90;;;;;;6250040;23;20218;-88
2021/11/06 00:29:08;;;;;;;6.83;1.10;;;9.60;99.90;;;;;;6257968;23;20167;-87
2021/11/06 00:31:42;;;;;;;2.47;1.00;;;9.40;99.90;;;;;;6225254;23;20167;-88
2021/11/06 00:34:17;;;;;;;4.80;1.00;;;9.40;99.90;;;;;;6269753;22;20202;-88
2021/11/06 00:42:11;;;;;;;1.97;0.77;;;9.10;99.90;;;;;;6258258;22;20217;-86
2021/11/06 00:44:51;;;;;;;2.83;0.83;;;9.10;99.90;;;;;;6269329;23;20163;-88
2021/11/06 00:47:26;;;;;;;3.40;1.10;;;9.10;99.90;;;;;;6269748;22;20234;-85
2021/11/06 00:50:00;;;;;;;5.67;0.80;;;9.10;99.90;;;;;;6267865;23;20199;-87
2021/11/06 00:52:37;;;;;;;4.53;0.83;;;9.00;99.90;;;;;;6269578;22;20173;-88
2021/11/06 00:55:10;;;;;;;4.40;0.90;;;9.00;99.90;;;;;;6258957;23;20179;-85
2021/11/06 00:57:47;;;;;;;3.80;1.07;;;8.90;99.90;;;;;;6259680;23;20199;-86
2021/11/06 01:00:21;;;;;;;2.20;0.90;;;8.80;99.90;;;;;;6259923;23;20178;-86
2021/11/06 01:02:53;;;;;;;5.63;3.13;;;8.80;99.90;;;;;;6233250;23;20210;-86
2021/11/06 01:05:25;;;;;;;6.70;3.73;;;8.70;99.90;;;;;;6257427;23;20183;-86
2021/11/06 01:07:58;;;;;;;6.27;2.47;;;8.70;99.90;;;;;;6233668;23;20211;-87
2021/11/06 01:10:30;;;;;;;3.63;1.40;;;8.80;99.90;;;;;;6258093;23;20183;-86
2021/11/06 01:13:02;;;;;;;2.13;1.03;;;8.70;99.90;;;;;;6233960;23;20866;-87
2021/11/06 01:15:35;;;;;;;5.57;1.37;;;8.70;99.90;;;;;;6258232;23;20168;-86
2021/11/06 01:18:08;;;;;;;1.90;1.30;;;8.50;99.90;;;;;;6256481;23;20182;-87
2021/11/06 01:20:40;;;;;;;5.47;1.90;;;8.50;99.90;;;;;;6268013;23;20209;-88
2021/11/06 01:23:12;;;;;;;6.63;1.77;;;8.50;99.90;;;;;;6265196;23;20491;-87
2021/11/06 01:25:45;;;;;;;3.53;1.13;;;8.50;99.90;;;;;;6261844;23;20250;-87
2021/11/06 01:28:17;;;;;;;4.50;1.33;;;8.50;99.90;;;;;;6261138;23;20194;-86
2021/11/06 01:30:50;;;;;;;4.30;1.23;;;8.50;99.90;;;;;;6253829;23;20226;-85
2021/11/06 01:33:22;;;;;;;3.63;1.10;;;8.50;99.90;;;;;;6265646;23;20160;-85
2021/11/06 01:35:54;;;;;;;4.87;1.20;;;8.50;99.90;;;;;;6261716;23;20168;-87
2021/11/06 01:38:26;;;;;;;2.50;1.10;;;8.40;99.90;;;;;;6262343;23;20228;-86
2021/11/06 01:40:57;;;;;;;4.43;1.33;;;8.30;99.90;;;;;;6261172;23;20184;-87
2021/11/06 01:43:28;;;;;;;6.07;1.43;;;8.20;99.90;;;;;;6259689;23;20199;-85
2021/11/06 01:46:04;;;;;;;5.53;1.30;;;8.20;99.90;;;;;;6258566;23;20166;-86
2021/11/06 01:48:36;;;;;;;3.27;1.23;;;8.20;99.90;;;;;;6259164;23;20327;-87
2021/11/06 01:51:09;;;;;;;4.67;1.30;;;8.20;99.90;;;;;;6256875;23;20267;-87
2021/11/06 01:53:41;;;;;;;3.60;1.53;;;8.20;99.90;;;;;;6261908;23;20183;-87
2021/11/06 01:56:12;;;;;;;6.47;1.30;;;8.20;99.90;;;;;;6236285;23;20210;-86
2021/11/06 01:58:44;;;;;;;3.07;1.30;;;8.20;99.90;;;;;;6263616;22;20202;-87
2021/11/06 02:01:18;;;;;;;3.17;1.30;;;8.30;99.90;;;;;;6257139;23;20534;-87
2021/11/06 02:06:33;;;;;;;3.23;1.13;;;8.30;99.90;;;;;;6264558;22;20301;-87
2021/11/06 02:09:06;;;;;;;3.53;1.30;;;8.20;99.90;;;;;;6240514;23;20179;-87
2021/11/06 02:11:37;;;;;;;1.43;1.10;;;8.20;99.90;;;;;;6241601;23;20220;-88
2021/11/06 02:14:09;;;;;;;3.87;1.23;;;8.20;99.90;;;;;;6268144;23;20250;-88
2021/11/06 02:16:42;;;;;;;3.40;1.17;;;8.20;99.90;;;;;;6251537;23;20205;-87
2021/11/06 02:19:14;;;;;;;4.30;1.77;;;8.20;99.90;;;;;;6250342;23;20719;-87
2021/11/06 02:21:47;;;;;;;4.07;1.77;;;8.20;99.90;;;;;;6248123;23;20175;-87
2021/11/06 02:24:18;;;;;;;2.10;1.30;;;8.10;99.90;;;;;;6246724;23;20192;-87
2021/11/06 02:26:50;;;;;;;6.27;1.57;;;8.00;99.90;;;;;;6257545;23;20184;-87
2021/11/06 02:29:22;;;;;;;3.43;1.80;;;7.90;99.90;;;;;;6258547;22;20225;-86
2021/11/06 02:31:58;;;;;;;1.93;1.10;;;7.90;99.90;;;;;;6260523;23;20199;-87
2021/11/06 02:34:29;;;;;;;2.13;1.20;;;7.80;99.90;;;;;;6234674;23;20278;-87
2021/11/06 02:37:03;;;;;;;3.67;1.07;;;7.70;99.90;;;;;;6257419;23;20187;-85
2021/11/06 02:39:35;;;;;;;2.50;1.47;;;7.70;99.90;;;;;;6261186;23;20172;-87
2021/11/06 02:42:09;;;;;;;5.83;1.90;;;7.60;99.90;;;;;;6260573;23;20175;-86
2021/11/06 02:44:42;;;;;;;5.30;2.00;;;7.60;99.90;;;;;;6261167;23;20202;-87
2021/11/06 02:47:13;;;;;;;4.57;2.33;;;7.50;99.90;;;;;;6252929;23;20171;-87
2021/11/06 02:49:45;;;;;;;3.97;1.47;;;7.40;99.90;;;;;;6247497;23;20244;-87
2021/11/06 02:52:21;;;;;;;8.60;2.13;;;7.40;99.90;;;;;;6247886;23;20168;-86
2021/11/06 02:54:53;;;;;;;3.73;1.73;;;7.30;99.90;;;;;;6255327;23;20581;-88
2021/11/06 02:57:24;;;;;;;4.33;1.70;;;7.30;99.90;;;;;;6251989;23;20266;-86
2021/11/06 02:59:55;;;;;;;5.10;1.57;;;7.20;99.90;;;;;;6246676;23;20168;-85
2021/11/06 03:02:27;;;;;;;5.33;1.90;;;7.10;99.90;;;;;;6259921;23;20167;-87
2021/11/06 03:04:58;;;;;;;3.57;1.30;;;7.10;99.90;;;;;;6253168;23;20245;-86
2021/11/06 03:07:32;;;;;;;4.43;1.47;;;7.10;99.90;;;;;;6253820;23;20183;-87
2021/11/06 03:10:04;;;;;;;6.93;1.70;;;7.00;99.90;;;;;;6247738;23;20640;-86
2021/11/06 03:12:36;;;;;;;3.10;1.67;;;6.90;99.90;;;;;;6251873;23;20219;-86
2021/11/06 03:15:09;;;;;;;2.73;1.70;;;6.80;99.90;;;;;;6246686;23;20180;-85
2021/11/06 03:17:41;;;;;;;3.03;1.50;;;6.80;99.90;;;;;;6255832;23;20167;-85
2021/11/06 03:20:15;;;;;;;3.33;1.43;;;6.70;99.90;;;;;;6262821;23;20164;-86
2021/11/06 03:22:50;;;;;;;2.17;1.30;;;6.70;99.90;;;;;;6261899;23;20175;-86
2021/11/06 03:25:21;;;;;;;4.63;1.60;;;6.60;99.90;;;;;;6264754;23;20250;-86
2021/11/06 03:28:04;;;;;;;3.13;1.37;;;6.60;99.90;;;;;;6248921;23;20241;-88
2021/11/06 03:30:36;;;;;;;3.70;1.50;;;6.50;99.90;;;;;;6254550;23;20191;-86
2021/11/06 03:33:07;;;;;;;3.83;1.77;;;6.50;99.90;;;;;;6248730;23;20168;-85
2021/11/06 03:35:39;;;;;;;4.23;1.90;;;6.40;99.90;;;;;;6232167;23;20240;-87
2021/11/06 03:38:12;;;;;;;4.33;2.03;;;6.50;99.90;;;;;;6264698;23;20168;-86
2021/11/06 03:40:52;;;;;;;4.30;1.53;;;6.40;99.90;;;;;;6257366;23;20176;-93
2021/11/06 03:43:40;;;;;;;4.53;1.57;;;6.40;99.90;;;;;;6265727;23;20187;-87
2021/11/06 03:46:13;;;;;;;4.53;1.77;;;6.30;99.90;;;;;;6262258;23;20194;-88
2021/11/06 03:48:47;;;;;;;2.63;1.40;;;6.30;99.90;;;;;;6266670;23;20214;-88
2021/11/06 03:51:23;;;;;;;10.00;2.00;;;6.30;99.90;;;;;;6269252;23;20470;-89
2021/11/06 03:53:57;;;;;;;5.23;1.70;;;6.20;99.90;;;;;;6265432;23;20254;-92
2021/11/06 03:56:29;;;;;;;6.50;1.93;;;6.20;99.90;;;;;;6265646;23;20174;-91
2021/11/06 03:59:01;;;;;;;6.93;1.87;;;6.10;99.90;;;;;;6268043;23;20186;-90
2021/11/06 04:01:33;;;;;;;3.37;1.87;;;6.10;99.90;;;;;;6242385;23;20193;-90
2021/11/06 04:04:09;;;;;;;3.47;1.90;;;6.10;99.90;;;;;;6266198;22;20207;-90
2021/11/06 04:06:46;;;;;;;5.47;1.83;;;6.10;99.90;;;;;;6258353;23;20179;-92
2021/11/06 04:09:20;;;;;;;4.20;1.80;;;6.10;99.90;;;;;;6259870;23;20210;-92
2021/11/06 04:11:54;;;;;;;4.70;2.00;;;6.10;99.90;;;;;;6264981;23;20177;-89
2021/11/06 04:14:26;;;;;;;2.73;2.00;;;6.00;99.90;;;;;;6266588;23;20172;-90
2021/11/06 04:16:57;;;;;;;7.20;2.10;;;5.90;99.90;;;;;;6233517;23;20207;-88
2021/11/06 04:19:28;;;;;;;4.53;2.20;;;5.90;99.90;;;;;;6264607;23;20181;-92
2021/11/06 04:21:59;;;;;;;5.00;2.07;;;5.80;99.90;;;;;;6271559;22;20172;-93
2021/11/06 04:24:36;;;;;;;5.60;2.20;;;5.80;99.90;;;;;;6270966;22;20200;-91
2021/11/06 04:27:09;;;;;;;6.43;1.90;;;5.80;99.90;;;;;;6269643;22;20171;-90
2021/11/06 04:29:41;;;;;;;4.27;2.10;;;5.80;99.90;;;;;;6269026;23;20195;-91
2021/11/06 04:32:13;;;;;;;8.73;2.40;;;5.80;99.90;;;;;;6265903;23;20218;-90
2021/11/06 04:37:32;;;;;;;3.80;1.90;;;5.80;99.90;;;;;;6209485;23;20169;-91
2021/11/06 04:40:07;;;;;;;3.37;1.80;;;5.80;99.90;;;;;;6203768;23;20169;-89
2021/11/06 04:42:39;;;;;;;4.90;1.70;;;5.80;99.90;;;;;;6199545;23;20193;-92
2021/11/06 04:45:12;;;;;;;3.37;1.50;;;5.80;99.90;;;;;;6200896;23;20515;-91
2021/11/06 04:47:43;;;;;;;3.00;1.43;;;5.80;99.90;;;;;;6198685;23;20216;-90
2021/11/06 04:50:15;;;;;;;4.37;1.60;;;5.80;99.90;;;;;;6194063;23;20170;-89
2021/11/06 04:52:47;;;;;;;3.63;1.37;;;5.80;99.90;;;;;;6202266;23;20221;-91
2021/11/06 04:55:20;;;;;;;5.23;1.80;;;5.80;99.90;;;;;;6202633;23;20173;-89
2021/11/06 04:57:51;;;;;;;4.00;1.50;;;5.70;99.90;;;;;;6193286;23;20177;-90
2021/11/06 05:00:23;;;;;;;4.90;1.87;;;5.70;99.90;;;;;;6202704;23;20192;-89
2021/11/06 05:02:54;;;;;;;3.50;1.70;;;5.70;99.90;;;;;;6195706;23;20180;-90
2021/11/06 05:05:26;;;;;;;3.93;1.53;;;5.70;99.90;;;;;;6195716;23;20220;-91
2021/11/06 05:07:59;;;;;;;5.57;1.50;;;5.70;99.90;;;;;;6175617;23;20237;-91
2021/11/06 05:10:31;;;;;;;4.57;1.67;;;5.70;99.90;;;;;;6195685;23;20169;-92
2021/11/06 05:13:02;;;;;;;3.23;1.77;;;5.70;99.90;;;;;;6198916;23;20216;-91
2021/11/06 05:15:33;;;;;;;4.17;1.50;;;5.70;99.90;;;;;;6204662;23;20217;-91
2021/11/06 05:18:04;;;;;;;2.10;1.43;;;5.80;99.90;;;;;;6196732;23;20318;-91
2021/11/06 05:20:38;;;;;;;4.33;1.50;;;5.80;99.90;;;;;;6191804;23;20199;-91
2021/11/06 05:23:09;;;;;;;3.13;1.30;;;5.80;99.90;;;;;;6200897;23;20180;-88
2021/11/06 05:25:44;;;;;;;3.67;1.70;;;5.90;99.90;;;;;;6173661;23;20197;-89
2021/11/06 05:28:14;;;;;;;3.53;1.40;;;5.90;99.90;;;;;;6195268;23;20223;-90
2021/11/06 05:30:46;;;;;;;4.20;1.80;;;5.90;99.90;;;;;;6190921;23;20165;-92
2021/11/06 05:33:17;;;;;;;4.03;1.80;;;5.90;99.90;;;;;;6189749;23;20177;-91
2021/11/06 05:35:48;;;;;;;5.10;1.60;;;5.80;99.90;;;;;;6189856;23;20239;-90
2021/11/06 05:38:18;;;;;;;3.90;1.30;;;5.80;99.90;;;;;;6189812;23;20167;-90
2021/11/06 05:40:52;;;;;;;2.77;1.30;;;5.80;99.90;;;;;;6190750;23;20173;-91
2021/11/06 05:46:34;;;;;;;2.47;1.20;;;5.70;99.90;;;;;;6187780;23;20201;-89
2021/11/06 05:49:06;;;;;;;2.87;1.30;;;5.70;99.90;;;;;;6166611;23;20557;-90
2021/11/06 05:51:40;;;;;;;3.83;1.63;;;5.70;99.90;;;;;;6198349;23;20183;-90
2021/11/06 05:54:13;;;;;;;4.37;1.50;;;5.70;99.90;;;;;;6208704;23;20185;-91
2021/11/06 05:56:46;;;;;;;4.80;2.30;;;5.70;99.90;;;;;;6192026;23;20244;-90
2021/11/06 05:59:17;;;;;;;4.30;1.83;;;5.70;99.90;;;;;;6188544;23;20173;-90
2021/11/06 06:01:48;;;;;;;2.77;1.93;;;5.80;99.90;;;;;;6205767;23;20184;-89
2021/11/06 06:04:21;;;;;;;3.40;1.57;;;5.80;99.90;;;;;;6197748;23;20177;-90
2021/11/06 06:06:53;;;;;;;2.97;1.47;;;5.90;99.90;;;;;;6191949;23;21081;-90
2021/11/06 06:09:24;;;;;;;3.83;1.50;;;6.00;99.90;;;;;;6187834;23;20185;-89
2021/11/06 06:11:58;;;;;;;2.97;1.50;;;6.00;99.90;;;;;;6189304;23;20248;-90
2021/11/06 06:14:29;;;;;;;3.43;1.43;;;6.10;99.90;;;;;;6188795;23;20169;-89
2021/11/06 06:17:00;;;;;;;1.23;0.80;;;6.20;99.90;;;;;;6187904;23;20184;-88
2021/11/06 06:19:31;;;;;;;2.63;1.00;;;6.20;99.90;;;;;;6191229;23;20201;-88
2021/11/06 06:22:02;;;;;;;4.37;1.10;;;6.20;99.90;;;;;;6191293;23;20177;-89
2021/11/06 06:24:33;;;;;;;3.60;1.10;;;6.30;99.90;;;;;;6189047;23;20169;-88
2021/11/06 06:27:07;;;;;;;4.77;1.73;;;6.30;99.90;;;;;;6187836;23;20228;-88
2021/11/06 06:29:38;;;;;;;2.87;1.40;;;6.30;99.90;;;;;;6189884;23;20170;-88
2021/11/06 06:32:10;;;;;;;4.20;1.30;;;6.40;99.90;;;;;;6163539;23;20173;-88
2021/11/06 06:34:41;;;;;;;3.03;1.20;;;6.40;99.90;;;;;;6190355;23;20173;-88
2021/11/06 06:37:12;;;;;;;2.47;1.30;;;6.40;99.90;;;;;;6190102;23;20196;-87
2021/11/06 06:39:44;;;;;;;2.97;1.57;;;6.30;99.90;;;;;;6207194;23;20228;-89
2021/11/06 06:42:16;;;;;;;1.83;1.17;;;6.30;99.90;;;;;;6209406;23;20182;-88
2021/11/06 06:44:48;;;;;;;2.67;1.30;;;6.30;99.90;;;;;;6208587;23;20184;-89
2021/11/06 06:47:19;;;;;;;4.20;1.40;;;6.20;99.90;;;;;;6205633;23;20193;-88
2021/11/06 06:49:49;;;;;;;5.40;1.40;;;6.30;99.90;;;;;;6200436;23;20180;-89
2021/11/06 06:52:21;;;;;;;3.43;1.60;;;6.30;99.90;;;;;;6189609;23;20188;-88
2021/11/06 06:54:52;;;;;;;2.20;1.47;;;6.30;99.90;;;;;;6197415;23;20256;-87
2021/11/06 06:57:26;;;;;;;5.73;1.50;;;6.30;99.90;;;;;;6190227;23;20236;-86
2021/11/06 06:59:57;;;;;;;3.70;1.20;;;6.30;99.90;;;;;;6191661;23;20631;-89
2021/11/06 07:02:28;;;;;;;3.77;1.27;;;6.30;99.90;;;;;;6190439;23;20177;-89
2021/11/06 07:05:00;;;;;;;4.67;1.40;;;6.30;99.90;;;;;;6188826;23;20184;-89
2021/11/06 07:07:31;;;;;;;3.47;1.70;;;6.30;99.90;;;;;;6204212;23;20212;-88
2021/11/06 07:10:02;;;;;;;3.00;1.40;;;6.40;99.90;;;;;;6208354;23;20175;-88
2021/11/06 07:12:36;;;;;;;2.37;1.10;;;6.40;99.90;;;;;;6210862;23;20173;-88
2021/11/06 07:15:09;;;;;;;3.30;1.33;;;6.40;99.90;;;;;;6211303;23;20171;-88
2021/11/06 07:17:40;;;;;;;7.87;2.10;;;6.40;99.90;;;;;;6200235;23;20173;-88
2021/11/06 07:20:14;;;;;;;3.60;1.47;;;6.40;99.90;;;;;;6193336;23;20176;-89
2021/11/06 07:22:45;;;;;;;2.80;1.27;;;6.40;99.90;;;;;;6193610;23;20166;-88
2021/11/06 07:25:16;;;;;;;4.20;1.17;;;6.40;99.90;;;;;;6192834;23;20169;-89
2021/11/06 07:27:51;;;;;;;4.53;1.33;;;6.40;99.90;;;;;;6194732;23;20199;-88
2021/11/06 07:30:22;;;;;;;3.73;1.23;;;6.40;99.90;;;;;;6191274;23;20172;-88
2021/11/06 07:32:54;;;;;;;2.70;1.50;;;6.40;99.90;;;;;;6190048;23;20177;-88
2021/11/06 07:35:24;;;;;;;2.73;1.30;;;6.40;99.90;;;;;;6189094;23;20185;-89
2021/11/06 07:37:55;;;;;;;4.23;1.50;;;6.40;99.90;;;;;;6189278;23;20170;-89
2021/11/06 07:40:27;;;;;;;5.57;1.17;;;6.40;99.90;;;;;;6189997;23;20177;-89
2021/11/06 07:43:02;;;;;;;3.43;1.10;;;6.50;99.90;;;;;;6164545;23;20173;-89
2021/11/06 07:45:32;;;;;;;3.57;1.00;;;6.50;99.90;;;;;;6188367;23;20206;-89
2021/11/06 07:48:04;;;;;;;2.63;1.17;;;6.50;99.90;;;;;;6189672;23;20253;-89
2021/11/06 07:50:35;;;;;;;2.03;0.90;;;6.60;99.90;;;;;;6164264;23;20224;-89
2021/11/06 07:53:06;;;;;;;1.43;0.93;;;6.70;99.90;;;;;;6164383;23;20165;-89
2021/11/06 07:55:38;;;;;;;5.10;1.10;;;6.70;99.90;;;;;;6188349;23;20193;-89
2021/11/06 07:58:26;;;;;;;2.63;1.00;;;6.70;99.90;;;;;;6189149;23;20203;-88
2021/11/06 08:01:04;;;;;;;1.93;1.00;;;6.70;99.90;;;;;;6189966;23;20181;-88
2021/11/06 08:03:37;;;;;;;5.60;1.20;;;6.80;99.90;;;;;;6188726;23;20530;-87
2021/11/06 08:06:09;;;;;;;3.63;1.07;;;6.90;99.90;;;;;;6188139;23;20255;-87
2021/11/06 08:08:40;;;;;;;2.67;0.70;;;6.90;99.90;;;;;;6163939;23;20181;-87
2021/11/06 08:11:12;;;;;;;2.20;1.00;;;7.20;99.90;;;;;;6189751;23;20177;-89
2021/11/06 08:13:45;;;;;;;1.07;0.70;;;7.40;99.90;;;;;;6189818;23;20178;-89
2021/11/06 08:16:16;;;;;;;1.37;0.60;;;7.70;99.90;;;;;;6189165;23;20558;-89
2021/11/06 08:18:47;;;;;;;3.00;0.80;;;7.80;99.90;;;;;;6192561;23;20178;-89
2021/11/06 08:21:18;;;;;;;5.03;0.90;;;7.80;99.90;;;;;;6188729;23;20181;-89
2021/11/06 08:23:49;;;;;;;1.47;0.70;;;7.90;99.90;;;;;;6164049;23;20176;-87
2021/11/06 08:26:21;;;;;;;5.50;0.93;;;7.80;99.90;;;;;;6188634;23;20192;-89
2021/11/06 08:28:53;;;;;;;2.63;0.67;;;8.00;99.90;;;;;;6189810;23;20169;-90
2021/11/06 08:31:24;;;;;;;2.27;0.70;;;7.90;99.90;;;;;;6191235;23;20502;-87
2021/11/06 08:33:59;;;;;;;0.93;0.70;;;7.90;99.90;;;;;;6190382;23;20173;-87
2021/11/06 08:36:30;;;;;;;2.50;0.80;;;7.80;99.90;;;;;;6187532;23;20264;-88
2021/11/06 08:39:01;;;;;;;4.03;1.00;;;7.70;99.90;;;;;;6189046;23;20169;-88
2021/11/06 08:41:31;;;;;;;1.13;0.80;;;7.70;99.90;;;;;;6190287;23;20666;-89
2021/11/06 08:44:04;;;;;;;1.50;0.80;;;7.80;99.90;;;;;;6189958;23;20180;-89
2021/11/06 08:46:35;;;;;;;1.80;0.60;;;7.70;99.90;;;;;;6190658;23;20174;-88
2021/11/06 08:49:06;;;;;;;0.90;0.57;;;7.70;99.90;;;;;;6192550;23;20235;-88
2021/11/06 08:51:36;;;;;;;2.70;0.60;;;7.80;99.90;;;;;;6209355;23;20173;-89
2021/11/06 08:54:08;;;;;;;1.53;0.60;;;7.80;99.90;;;;;;6208774;23;20173;-88
2021/11/06 08:56:39;;;;;;;2.00;0.70;;;8.00;99.90;;;;;;6197932;23;20180;-89
2021/11/06 08:59:12;;;;;;;1.40;0.60;;;8.20;99.90;;;;;;6190234;23;20187;-89
2021/11/06 09:01:43;;;;;;;4.83;0.57;;;8.30;99.90;;;;;;6190906;23;20169;-89
2021/11/06 09:04:14;;;;;;;1.57;0.50;;;8.30;99.90;;;;;;6189731;23;20169;-88
2021/11/06 09:06:45;;;;;;;1.53;0.63;;;8.30;99.90;;;;;;6187818;23;20184;-88
2021/11/06 09:09:17;;;;;;;1.47;0.60;;;8.20;99.90;;;;;;6189262;23;20193;-90
2021/11/06 09:11:51;;;;;;;1.13;0.50;;;8.10;99.90;;;;;;6189397;23;20170;-89
2021/11/06 09:14:24;;;;;;;0.67;0.50;;;8.10;99.90;;;;;;6189745;23;20177;-89
2021/11/06 09:16:55;;;;;;;2.37;0.60;;;8.10;99.90;;;;;;6188457;23;20173;-88
2021/11/06 09:19:26;;;;;;;1.43;0.60;;;8.00;99.90;;;;;;6189826;23;20177;-89
2021/11/06 09:21:57;;;;;;;1.77;0.50;;;8.00;99.90;;;;;;6196827;23;20201;-88
2021/11/06 09:24:28;;;;;;;1.00;0.70;;;8.00;99.90;;;;;;6195734;23;20212;-88
2021/11/06 09:27:00;;;;;;;2.90;0.70;;;8.00;99.90;;;;;;6192449;23;20223;-89
2021/11/06 09:29:33;;;;;;;1.53;0.70;;;7.90;99.90;;;;;;6189454;23;20168;-87
2021/11/06 09:32:04;;;;;;;2.33;0.70;;;8.00;99.90;;;;;;6188915;23;20199;-87
2021/11/06 09:34:36;;;;;;;2.37;0.57;;;8.10;99.90;;;;;;6189729;23;20228;-87
2021/11/06 09:37:07;;;;;;;2.50;0.90;;;8.00;99.90;;;;;;6160827;23;20208;-89
2021/11/06 09:39:38;;;;;;;1.17;0.57;;;7.90;99.90;;;;;;6191329;23;20173;-88
2021/11/06 09:42:09;;;;;;;1.27;0.60;;;7.90;99.90;;;;;;6189150;23;20179;-89
2021/11/06 09:44:42;;;;;;;2.77;0.60;;;7.80;99.90;;;;;;6198663;23;20166;-89
2021/11/06 09:47:14;;;;;;;0.50;0.50;;;7.70;99.90;;;;;;6206684;23;20208;-89
2021/11/06 09:49:45;;;;;;;1.60;0.50;;;7.60;99.90;;;;;;6209041;23;20181;-87
2021/11/06 09:52:19;;;;;;;2.60;0.63;;;7.60;99.90;;;;;;6209541;23;20161;-88
2021/11/06 09:54:50;;;;;;;2.23;0.40;;;7.50;99.90;;;;;;6210462;23;20161;-88
2021/11/06 09:57:21;;;;;;;1.63;0.70;;;7.60;99.90;;;;;;6209091;23;20183;-88
2021/11/06 09:59:54;;;;;;;1.27;0.70;;;7.70;99.90;;;;;;6210406;23;20215;-88
2021/11/06 10:02:26;;;;;;;0.70;0.53;;;7.80;99.90;;;;;;6210329;23;20183;-88
2021/11/06 10:04:57;;;;;;;1.80;0.40;;;7.80;99.90;;;;;;6210143;23;20176;-89
2021/11/06 10:07:28;;;;;;;0.60;0.40;;;7.80;99.90;;;;;;6209472;23;20215;-88
2021/11/06 10:10:01;;;;;;;1.10;0.40;;;7.80;99.90;;;;;;6209219;23;20169;-87
2021/11/06 10:12:50;;;;;;;1.63;0.83;;;7.90;99.90;;;;;;6196351;23;20698;-87
2021/11/06 10:15:24;;;;;;;0.43;0.30;;;7.90;99.90;;;;;;6192956;23;20166;-86
2021/11/06 10:17:55;;;;;;;1.03;0.50;;;8.00;99.90;;;;;;6193596;23;20179;-87
2021/11/06 10:20:30;;;;;;;1.83;0.60;;;8.00;99.90;;;;;;6193023;23;20185;-88
2021/11/06 10:23:07;;;;;;;0.73;0.60;;;8.10;99.90;;;;;;6189899;23;20184;-89
2021/11/06 10:25:40;;;;;;;1.47;0.40;;;8.10;99.90;;;;;;6191311;23;20246;-88
2021/11/06 10:28:14;;;;;;;0.97;0.43;;;8.10;99.90;;;;;;6191496;23;20205;-87
2021/11/06 10:30:48;;;;;;;0.50;0.50;;;8.10;99.90;;;;;;6190942;23;20185;-88
2021/11/06 10:33:19;;;;;;;1.37;0.40;;;8.10;99.90;;;;;;6191263;23;20169;-89
2021/11/06 10:35:52;;;;;;;1.77;0.50;;;8.10;99.90;;;;;;6190079;23;20198;-88
2021/11/06 10:38:27;;;;;;;1.33;0.60;;;8.10;99.90;;;;;;6190843;23;20177;-88
2021/11/06 10:41:03;;;;;;;0.50;0.30;;;8.20;99.90;;;;;;6191533;23;20200;-88
2021/11/06 10:43:35;;;;;;;0.40;0.30;;;8.10;99.90;;;;;;6190731;23;20172;-88
2021/11/06 10:46:15;;;;;;;0.87;0.43;;;8.20;99.90;;;;;;6189970;23;20181;-88
2021/11/06 10:48:46;;;;;;;1.83;0.63;;;8.10;99.90;;;;;;6189957;23;20192;-88
2021/11/06 10:51:17;;;;;;;1.47;0.50;;;8.10;99.90;;;;;;6168805;23;20603;-89
2021/11/06 10:53:50;;;;;;;1.70;0.50;;;8.10;99.90;;;;;;6190696;23;20200;-89
2021/11/06 10:56:42;;;;;;;0.37;0.37;;;8.10;99.90;;;;;;6196802;23;20180;-88
2021/11/06 10:59:16;;;;;;;1.90;0.30;;;8.10;99.90;;;;;;6207153;23;20200;-88
2021/11/06 11:01:53;;;;;;;0.67;0.20;;;8.00;99.90;;;;;;6206757;23;20159;-89
2021/11/06 11:04:25;;;;;;;0.30;0.30;;;8.00;99.90;;;;;;6209561;23;20187;-89
2021/11/06 11:06:58;;;;;;;1.90;0.40;;;7.90;99.90;;;;;;6200091;23;20181;-87
2021/11/06 11:09:31;;;;;;;0.70;0.30;;;7.90;99.90;;;;;;6192673;23;20545;-88
2021/11/06 11:12:03;;;;;;;0.50;0.40;;;7.80;99.90;;;;;;6191463;23;20188;-87
2021/11/06 11:14:35;;;;;;;2.00;0.60;;;7.80;99.90;;;;;;6191863;23;20604;-88
2021/11/06 11:17:08;;;;;;;1.50;0.40;;;7.80;99.90;;;;;;6190402;23;20181;-88
2021/11/06 11:19:44;;;;;;;0.83;0.50;;;7.80;99.90;;;;;;6190607;23;20173;-89
2021/11/06 11:22:24;;;;;;;0.20;0.20;;;7.80;99.90;;;;;;6190043;23;20175;-88
2021/11/06 11:24:56;;;;;;;0.30;0.30;;;7.80;99.90;;;;;;6190863;23;20169;-86
2021/11/06 11:27:48;;;;;;;0.67;0.50;;;7.80;99.90;;;;;;6190180;23;20293;-88
2021/11/06 11:30:19;;;;;;;1.07;0.60;;;7.80;99.90;;;;;;6190405;23;20529;-87
2021/11/06 11:32:52;;;;;;;2.20;0.50;;;7.80;99.90;;;;;;6188795;23;20191;-89
2021/11/06 11:35:23;;;;;;;0.63;0.30;;;7.80;99.90;;;;;;6189167;23;20189;-87
2021/11/06 11:37:58;;;;;;;0.30;0.30;;;7.70;99.90;;;;;;6189896;23;20217;-89
2021/11/06 11:40:32;;;;;;;1.00;0.30;;;7.80;99.90;;;;;;6189787;23;20559;-88
2021/11/06 11:43:15;;;;;;;0.60;0.40;;;7.70;99.90;;;;;;6190586;23;20180;-88
2021/11/06 11:45:53;;;;;;;1.13;0.33;;;7.80;99.90;;;;;;6188200;23;20181;-88
2021/11/06 11:48:28;;;;;;;0.47;0.30;;;7.80;99.90;;;;;;6190121;23;20231;-88
2021/11/06 11:51:01;;;;;;;0.60;0.30;;;7.80;99.90;;;;;;6189132;23;20181;-89
2021/11/06 11:53:34;;;;;;;0.37;0.37;;;7.70;99.90;;;;;;6188587;23;20184;-89
2021/11/06 11:56:19;;;;;;;0.53;0.37;;;7.60;99.90;;;;;;6187837;23;20177;-88
2021/11/06 11:58:50;;;;;;;0.67;0.40;;;7.60;99.90;;;;;;6190992;23;20185;-89
2021/11/06 12:01:22;;;;;;;1.43;0.50;;;7.70;99.90;;;;;;6190832;23;20191;-89
2021/11/06 12:03:57;;;;;;;0.50;0.30;;;7.60;99.90;;;;;;6190683;23;20170;-88
2021/11/06 12:06:30;;;;;;;1.13;0.50;;;7.60;99.90;;;;;;6193597;23;20188;-89
2021/11/06 12:09:23;;;;;;;1.20;0.40;;;7.60;99.90;;;;;;6191728;23;20208;-89
2021/11/06 12:11:56;;;;;;;1.13;0.53;;;7.60;99.90;;;;;;6192742;23;20176;-88
2021/11/06 12:14:29;;;;;;;0.47;0.30;;;7.60;99.90;;;;;;6191133;23;20231;-88
2021/11/06 12:17:03;;;;;;;0.40;0.40;;;7.60;99.90;;;;;;6191980;23;20170;-87
2021/11/06 12:19:45;;;;;;;0.27;0.27;;;7.60;99.90;;;;;;6192412;23;20617;-89
2021/11/06 12:22:18;;;;;;;2.97;0.20;;;7.50;99.90;;;;;;6190804;23;20242;-88
2021/11/06 12:24:51;;;;;;;0.30;0.30;;;7.50;99.90;;;;;;6191199;23;20526;-89
2021/11/06 12:27:34;;;;;;;0.17;0.17;;;7.50;99.90;;;;;;6189372;23;20165;-89
2021/11/06 12:30:06;;;;;;;0.20;0.20;;;7.50;99.90;;;;;;6190242;23;20620;-88
2021/11/06 12:32:45;;;;;;;0.80;0.20;;;7.50;99.90;;;;;;6190219;23;20169;-88
2021/11/06 12:35:24;;;;;;;0.30;0.30;;;7.50;99.90;;;;;;6189469;23;20239;-89
2021/11/06 12:37:57;;;;;;;0.50;0.40;;;7.50;99.90;;;;;;6190672;23;20169;-88
2021/11/06 12:40:46;;;;;;;0.20;0.20;;;7.50;99.90;;;;;;6191093;23;20184;-89
2021/11/06 12:43:21;;;;;;;0.30;0.30;;;7.50;99.90;;;;;;6190725;23;20315;-88
2021/11/06 12:45:54;;;;;;;0.70;0.20;;;7.50;99.90;;;;;;6189469;23;20193;-88
2021/11/06 12:48:45;;;;;;;0.20;0.20;;;7.60;99.90;;;;;;6190837;23;20172;-89
2021/11/06 12:51:19;;;;;;;0.50;0.30;;;7.60;99.90;;;;;;6191267;23;20165;-89
2021/11/06 12:53:53;;;;;;;0.60;0.27;;;7.60;99.90;;;;;;6190229;23;20466;-87
2021/11/06 12:56:27;;;;;;;0.20;0.20;;;7.60;99.90;;;;;;6189980;23;20169;-88
2021/11/06 12:59:10;;;;;;;0.60;0.33;;;7.70;99.90;;;;;;6191990;23;20241;-88
2021/11/06 13:01:42;;;;;;;0.37;0.30;;;7.60;99.90;;;;;;6191641;23;20734;-89
2021/11/06 13:04:18;;;;;;;0.20;0.20;;;7.60;99.90;;;;;;6192354;23;20496;-88
2021/11/06 13:06:52;;;;;;;0.97;0.20;;;7.60;99.90;;;;;;6198576;23;20221;-87
2021/11/06 13:09:25;;;;;;;0.40;0.30;;;7.60;99.90;;;;;;6207254;23;20574;-88
2021/11/06 13:12:04;;;;;;;1.80;0.30;;;7.50;99.90;;;;;;6208688;23;20183;-89
2021/11/06 13:14:42;;;;;;;0.40;0.30;;;7.50;99.90;;;;;;6204608;23;20568;-88
2021/11/06 13:17:16;;;;;;;0.17;0.17;;;7.60;99.90;;;;;;6192431;23;20161;-88
2021/11/06 13:19:51;;;;;;;1.50;0.20;;;7.50;99.90;;;;;;6192324;23;20241;-88
2021/11/06 13:22:48;;;;;;;0.63;0.30;;;7.50;99.90;;;;;;6192167;23;20184;-88
2021/11/06 13:25:24;;;;;;;0.37;0.30;;;7.50;99.90;;;;;;6202425;23;20164;-88
2021/11/06 13:28:00;;;;;;;0.60;0.27;;;7.50;99.90;;;;;;6208627;23;20216;-90
2021/11/06 13:30:38;;;;;;;0.50;0.30;;;7.50;99.90;;;;;;6204202;23;20197;-89
2021/11/06 13:33:14;;;;;;;0.50;0.30;;;7.50;99.90;;;;;;6164463;23;20189;-89
2021/11/06 13:35:48;;;;;;;0.73;0.30;;;7.50;99.90;;;;;;6188833;23;20189;-89
2021/11/06 13:38:27;;;;;;;0.50;0.30;;;7.50;99.90;;;;;;6189361;23;20199;-87
2021/11/06 13:41:07;;;;;;;0.63;0.20;;;7.50;99.90;;;;;;6189315;23;20250;-88
2021/11/06 13:43:41;;;;;;;0.57;0.40;;;7.50;99.90;;;;;;6183846;23;20239;-86